Time;durP1;ratioP1;P1;durP2;ratioP2;P2;SDS_P1;SDS_P2;PMS_P1;PMS_P2;Temp;Humidity;BMP_temperature;BMP_pressure;BME280_temperature;BME280_humidity;BME280_pressure;Samples;Min_cycle;Max_cycle;Signal;HPM_P1;HPM_P2
2022/06/11 00:00:15;;;;;;;5.00;2.80;;;;;;;;;;5102895;28;20028;-75
2022/06/11 00:02:41;;;;;;;5.18;3.20;;;;;;;;;;5100187;28;20085;-76
2022/06/11 00:05:07;;;;;;;6.28;3.22;;;;;;;;;;5101697;28;20038;-75
2022/06/11 00:07:34;;;;;;;4.40;3.00;;;;;;;;;;5101227;28;20030;-76
2022/06/11 00:10:00;;;;;;;6.20;3.53;;;;;;;;;;5098488;28;20472;-75
2022/06/11 00:12:26;;;;;;;4.57;3.30;;;;;;;;;;5107257;28;20019;-72
2022/06/11 00:14:53;;;;;;;5.15;3.42;;;;;;;;;;5099503;28;20848;-75
2022/06/11 00:17:20;;;;;;;5.68;3.85;;;;;;;;;;5107593;28;20031;-74
2022/06/11 00:19:46;;;;;;;7.60;4.10;;;;;;;;;;5103749;28;20471;-74
2022/06/11 00:22:13;;;;;;;6.97;4.00;;;;;;;;;;5106800;28;20032;-72
2022/06/11 00:24:39;;;;;;;7.38;3.80;;;;;;;;;;5104814;28;20395;-72
2022/06/11 00:27:05;;;;;;;5.35;3.70;;;;;;;;;;5102652;28;20035;-74
2022/06/11 00:29:33;;;;;;;5.55;4.25;;;;;;;;;;5098813;28;20028;-74
2022/06/11 00:31:58;;;;;;;6.13;4.32;;;;;;;;;;5097266;28;20032;-75
2022/06/11 00:34:24;;;;;;;5.90;4.10;;;;;;;;;;5099175;28;20028;-72
2022/06/11 00:36:51;;;;;;;5.93;4.18;;;;;;;;;;5105358;28;20040;-72
2022/06/11 00:39:20;;;;;;;6.63;4.10;;;;;;;;;;5101919;28;20088;-72
2022/06/11 00:41:49;;;;;;;5.95;4.07;;;;;;;;;;5107789;28;20036;-76
2022/06/11 00:44:15;;;;;;;5.18;3.97;;;;;;;;;;5106444;27;20031;-73
2022/06/11 00:46:49;;;;;;;6.72;4.07;;;;;;;;;;5105761;27;20031;-74
2022/06/11 00:49:26;;;;;;;7.68;3.90;;;;;;;;;;5099150;27;20114;-74
2022/06/11 00:51:59;;;;;;;5.63;3.55;;;;;;;;;;5106758;27;20098;-72
2022/06/11 00:54:26;;;;;;;6.30;3.60;;;;;;;;;;5099667;27;20035;-74
2022/06/11 00:56:56;;;;;;;5.78;3.38;;;;;;;;;;5104901;28;20027;-74
2022/06/11 00:59:29;;;;;;;4.32;3.10;;;;;;;;;;5105225;28;20022;-74
2022/06/11 01:01:55;;;;;;;6.22;3.70;;;;;;;;;;5103179;27;20028;-75
2022/06/11 01:04:35;;;;;;;4.97;3.47;;;;;;;;;;5103425;28;20176;-73
2022/06/11 01:07:28;;;;;;;5.55;3.42;;;;;;;;;;5105891;28;20027;-72
2022/06/11 01:10:11;;;;;;;5.40;3.33;;;;;;;;;;5059198;28;20532;-72
2022/06/11 01:13:00;;;;;;;5.13;3.15;;;;;;;;;;5103550;28;20084;-73
2022/06/11 01:15:38;;;;;;;6.13;3.40;;;;;;;;;;5104166;28;20020;-74
2022/06/11 01:18:09;;;;;;;4.50;3.10;;;;;;;;;;5099892;27;20512;-73
2022/06/11 01:20:39;;;;;;;4.82;2.90;;;;;;;;;;5103621;27;20023;-75
2022/06/11 01:23:23;;;;;;;6.32;3.58;;;;;;;;;;5102814;27;20077;-73
2022/06/11 01:26:20;;;;;;;4.40;3.03;;;;;;;;;;5097233;28;20111;-75
2022/06/11 01:29:10;;;;;;;6.57;3.40;;;;;;;;;;5051388;28;20080;-74
2022/06/11 01:31:52;;;;;;;4.25;3.10;;;;;;;;;;5103058;28;20112;-74
2022/06/11 01:34:31;;;;;;;5.10;3.35;;;;;;;;;;5100241;27;20028;-74
2022/06/11 01:37:03;;;;;;;7.05;3.75;;;;;;;;;;5101445;28;20625;-73
2022/06/11 01:39:42;;;;;;;5.65;3.50;;;;;;;;;;5097397;27;20084;-75
2022/06/11 01:42:20;;;;;;;4.85;3.45;;;;;;;;;;5097875;27;20039;-74
2022/06/11 01:44:46;;;;;;;4.68;3.53;;;;;;;;;;5100900;28;20102;-75
2022/06/11 01:47:13;;;;;;;6.97;3.95;;;;;;;;;;5100019;27;20118;-72
2022/06/11 01:49:47;;;;;;;5.13;3.50;;;;;;;;;;5099878;27;20062;-74
2022/06/11 01:52:28;;;;;;;6.80;3.45;;;;;;;;;;5102797;27;20047;-75
2022/06/11 01:55:09;;;;;;;5.22;3.50;;;;;;;;;;5100965;28;20098;-74
2022/06/11 01:57:43;;;;;;;6.05;3.53;;;;;;;;;;5103810;28;20023;-75
2022/06/11 02:00:21;;;;;;;5.75;3.50;;;;;;;;;;5106858;27;20028;-74
2022/06/11 02:03:09;;;;;;;7.15;3.55;;;;;;;;;;5103090;27;20024;-75
2022/06/11 02:06:01;;;;;;;4.85;3.55;;;;;;;;;;5099507;27;20035;-75
2022/06/11 02:08:29;;;;;;;6.43;3.58;;;;;;;;;;5102353;27;20035;-73
2022/06/11 02:11:10;;;;;;;6.82;3.70;;;;;;;;;;5101256;28;20028;-75
2022/06/11 02:13:49;;;;;;;5.28;3.60;;;;;;;;;;5103314;28;20027;-75
2022/06/11 02:16:28;;;;;;;6.20;3.47;;;;;;;;;;5113077;27;20083;-74
2022/06/11 02:18:56;;;;;;;4.97;3.28;;;;;;;;;;5100645;27;20047;-73
2022/06/11 02:21:30;;;;;;;5.03;3.50;;;;;;;;;;5099396;27;20084;-76
2022/06/11 02:24:09;;;;;;;5.30;3.05;;;;;;;;;;5098984;27;20205;-76
2022/06/11 02:26:43;;;;;;;6.13;3.40;;;;;;;;;;5102596;27;20071;-76
2022/06/11 02:29:11;;;;;;;4.60;3.00;;;;;;;;;;5103763;28;20024;-73
2022/06/11 02:31:52;;;;;;;5.25;2.92;;;;;;;;;;5104167;28;20042;-73
2022/06/11 02:34:20;;;;;;;4.13;2.95;;;;;;;;;;5098974;27;20503;-74
2022/06/11 02:36:54;;;;;;;4.75;3.15;;;;;;;;;;5110394;27;20059;-74
2022/06/11 02:39:20;;;;;;;5.22;3.10;;;;;;;;;;5100524;28;20028;-75
2022/06/11 02:41:47;;;;;;;4.47;3.00;;;;;;;;;;5102335;28;20090;-75
2022/06/11 02:44:13;;;;;;;4.20;3.20;;;;;;;;;;5103480;28;20024;-76
2022/06/11 02:46:45;;;;;;;4.15;2.95;;;;;;;;;;5103699;28;20050;-76
2022/06/11 02:49:23;;;;;;;6.18;3.00;;;;;;;;;;5100674;27;20019;-72
2022/06/11 02:51:50;;;;;;;5.40;2.90;;;;;;;;;;5096867;27;20054;-75
2022/06/11 02:54:17;;;;;;;5.65;3.20;;;;;;;;;;5099682;27;20023;-75
2022/06/11 02:56:43;;;;;;;4.40;2.92;;;;;;;;;;5103771;28;20035;-74
2022/06/11 02:59:10;;;;;;;4.30;2.97;;;;;;;;;;5098317;28;20415;-75
2022/06/11 03:01:35;;;;;;;4.53;2.88;;;;;;;;;;5102515;28;20076;-76
2022/06/11 03:04:01;;;;;;;4.10;2.83;;;;;;;;;;5094858;28;20467;-73
2022/06/11 03:06:27;;;;;;;6.32;3.40;;;;;;;;;;5095096;27;20398;-72
2022/06/11 03:08:54;;;;;;;4.55;2.90;;;;;;;;;;5098410;27;20028;-76
2022/06/11 03:11:20;;;;;;;6.68;2.80;;;;;;;;;;5104809;28;20027;-75
2022/06/11 03:13:45;;;;;;;8.88;2.90;;;;;;;;;;5097604;28;20036;-73
2022/06/11 03:16:12;;;;;;;3.33;2.40;;;;;;;;;;5103633;27;20028;-72
2022/06/11 03:18:37;;;;;;;5.20;2.90;;;;;;;;;;5095716;28;20114;-74
2022/06/11 03:21:03;;;;;;;5.20;2.33;;;;;;;;;;5104314;28;20107;-73
2022/06/11 03:23:29;;;;;;;4.15;2.25;;;;;;;;;;5107414;28;20027;-75
2022/06/11 03:25:55;;;;;;;4.13;2.30;;;;;;;;;;5105110;28;20471;-73
2022/06/11 03:28:25;;;;;;;4.13;2.20;;;;;;;;;;5096099;28;20032;-76
2022/06/11 03:30:51;;;;;;;6.30;2.83;;;;;;;;;;5093346;28;21659;-73
2022/06/11 03:33:17;;;;;;;6.20;2.33;;;;;;;;;;5098259;28;20422;-74
2022/06/11 03:35:46;;;;;;;4.80;2.13;;;;;;;;;;5097540;28;20059;-75
2022/06/11 03:38:12;;;;;;;5.22;2.22;;;;;;;;;;5094237;28;20940;-75
2022/06/11 03:40:38;;;;;;;4.47;2.10;;;;;;;;;;5090852;28;20027;-74
2022/06/11 03:43:04;;;;;;;6.28;2.30;;;;;;;;;;5092800;28;21119;-76
2022/06/11 03:45:30;;;;;;;4.85;2.33;;;;;;;;;;5095933;28;20061;-74
2022/06/11 03:47:55;;;;;;;5.65;2.10;;;;;;;;;;5092290;28;20074;-74
2022/06/11 03:50:26;;;;;;;6.55;2.30;;;;;;;;;;5092572;28;20023;-74
2022/06/11 03:52:53;;;;;;;3.80;2.15;;;;;;;;;;5090204;28;20028;-74
2022/06/11 03:55:19;;;;;;;4.43;2.13;;;;;;;;;;5098827;28;20418;-75
2022/06/11 03:57:44;;;;;;;4.35;2.10;;;;;;;;;;5104882;28;20024;-74
2022/06/11 04:00:14;;;;;;;4.18;2.20;;;;;;;;;;5091081;28;20468;-76
2022/06/11 04:02:39;;;;;;;4.05;2.20;;;;;;;;;;5092749;28;20026;-73
2022/06/11 04:05:07;;;;;;;5.22;2.30;;;;;;;;;;5098713;28;20032;-72
2022/06/11 04:07:33;;;;;;;5.25;2.30;;;;;;;;;;5104328;28;20024;-76
2022/06/11 04:09:58;;;;;;;5.18;2.17;;;;;;;;;;5104176;28;20480;-75
2022/06/11 04:12:24;;;;;;;5.95;3.13;;;;;;;;;;5105283;27;20030;-74
2022/06/11 04:14:50;;;;;;;6.55;2.10;;;;;;;;;;5095615;27;20023;-75
2022/06/11 04:17:30;;;;;;;5.72;2.10;;;;;;;;;;5101669;28;20035;-74
2022/06/11 04:19:56;;;;;;;5.18;2.05;;;;;;;;;;5105767;27;20068;-76
2022/06/11 04:22:22;;;;;;;4.75;1.92;;;;;;;;;;5099723;28;20032;-76
2022/06/11 04:24:49;;;;;;;4.18;1.77;;;;;;;;;;5102042;27;20441;-74
2022/06/11 04:27:17;;;;;;;5.30;1.90;;;;;;;;;;5108381;27;20114;-74
2022/06/11 04:29:47;;;;;;;5.75;1.83;;;;;;;;;;5098795;27;20077;-75
2022/06/11 04:32:15;;;;;;;4.63;2.08;;;;;;;;;;5096941;27;20023;-75
2022/06/11 04:34:42;;;;;;;4.70;1.90;;;;;;;;;;5103285;28;20786;-75
2022/06/11 04:37:13;;;;;;;6.05;1.80;;;;;;;;;;5101684;28;20110;-73
2022/06/11 04:39:41;;;;;;;4.00;1.85;;;;;;;;;;5103749;27;20517;-73
2022/06/11 04:42:09;;;;;;;3.15;1.80;;;;;;;;;;5099507;27;20472;-75
2022/06/11 04:44:36;;;;;;;5.10;2.08;;;;;;;;;;5101130;28;20445;-75
2022/06/11 04:47:01;;;;;;;5.68;1.83;;;;;;;;;;5094773;28;20085;-76
2022/06/11 04:49:27;;;;;;;5.32;2.10;;;;;;;;;;5106895;27;20020;-74
2022/06/11 04:51:52;;;;;;;4.30;2.10;;;;;;;;;;5106960;28;20023;-75
2022/06/11 04:54:17;;;;;;;3.90;1.90;;;;;;;;;;5108664;28;20023;-74
2022/06/11 04:56:43;;;;;;;5.20;2.80;;;;;;;;;;5108998;27;20475;-73
2022/06/11 04:59:09;;;;;;;5.43;2.45;;;;;;;;;;5109200;28;20024;-74
2022/06/11 05:01:34;;;;;;;4.93;2.13;;;;;;;;;;5106257;28;20152;-73
2022/06/11 05:03:59;;;;;;;6.18;2.22;;;;;;;;;;5104429;28;20088;-73
2022/06/11 05:06:32;;;;;;;4.90;2.00;;;;;;;;;;5106434;28;20388;-75
2022/06/11 05:08:58;;;;;;;5.28;2.10;;;;;;;;;;5104062;28;20027;-74
2022/06/11 05:11:24;;;;;;;5.18;1.98;;;;;;;;;;5103705;27;20031;-74
2022/06/11 05:13:50;;;;;;;4.30;1.98;;;;;;;;;;5106502;27;20505;-74
2022/06/11 05:16:18;;;;;;;4.13;1.90;;;;;;;;;;5101067;27;20031;-75
2022/06/11 05:18:44;;;;;;;5.10;1.80;;;;;;;;;;5095966;27;20031;-75
2022/06/11 05:21:10;;;;;;;5.20;1.73;;;;;;;;;;5102701;27;20035;-74
2022/06/11 05:23:35;;;;;;;7.63;2.20;;;;;;;;;;5094844;28;20126;-74
2022/06/11 05:26:00;;;;;;;6.32;1.65;;;;;;;;;;5103859;27;20035;-72
2022/06/11 05:28:29;;;;;;;6.28;1.95;;;;;;;;;;5103710;28;20023;-74
2022/06/11 05:30:56;;;;;;;6.07;1.83;;;;;;;;;;5101784;28;20043;-74
2022/06/11 05:33:23;;;;;;;5.28;1.80;;;;;;;;;;5104176;27;20036;-75
2022/06/11 05:35:49;;;;;;;7.20;1.88;;;;;;;;;;5102420;27;20511;-75
2022/06/11 05:38:18;;;;;;;8.18;2.03;;;;;;;;;;5103066;27;20084;-75
2022/06/11 05:40:47;;;;;;;6.25;1.95;;;;;;;;;;5100287;27;20486;-72
2022/06/11 05:43:13;;;;;;;6.35;1.80;;;;;;;;;;5102786;27;20040;-75
2022/06/11 05:46:07;;;;;;;8.25;1.60;;;;;;;;;;5106807;28;20079;-74
2022/06/11 05:48:39;;;;;;;8.00;2.03;;;;;;;;;;5104831;27;20031;-74
2022/06/11 05:51:05;;;;;;;10.05;2.10;;;;;;;;;;5099919;27;20520;-75
2022/06/11 05:53:34;;;;;;;7.65;2.00;;;;;;;;;;5107515;28;20114;-74
2022/06/11 05:56:01;;;;;;;9.80;2.13;;;;;;;;;;5097979;27;20042;-74
2022/06/11 05:58:32;;;;;;;9.55;2.33;;;;;;;;;;5107561;27;20019;-72
2022/06/11 06:00:59;;;;;;;7.75;2.13;;;;;;;;;;5103638;28;20024;-74
2022/06/11 06:03:24;;;;;;;8.90;2.20;;;;;;;;;;5102426;28;20122;-73
2022/06/11 06:05:50;;;;;;;11.15;2.72;;;;;;;;;;5106702;28;20526;-75
2022/06/11 06:08:16;;;;;;;9.02;2.17;;;;;;;;;;5102574;27;20055;-74
2022/06/11 06:10:42;;;;;;;7.30;1.85;;;;;;;;;;5106449;28;20518;-75
2022/06/11 06:13:45;;;;;;;8.02;2.15;;;;;;;;;;5103277;27;20023;-75
2022/06/11 06:15:53;;;;;;;4.30;2.00;;;;;;;;;;5100825;28;20063;-73
2022/06/11 06:18:20;;;;;;;10.07;2.40;;;;;;;;;;5100696;28;20121;-75
2022/06/11 06:20:46;;;;;;;8.95;2.45;;;;;;;;;;5095326;27;20083;-75
2022/06/11 06:23:13;;;;;;;8.27;1.83;;;;;;;;;;5099128;28;20837;-75
2022/06/11 06:25:38;;;;;;;8.38;2.40;;;;;;;;;;5092271;27;20414;-72
2022/06/11 06:28:04;;;;;;;8.40;1.98;;;;;;;;;;5097790;28;20028;-74
2022/06/11 06:30:29;;;;;;;8.52;2.03;;;;;;;;;;5094917;27;20028;-73
2022/06/11 06:32:55;;;;;;;7.72;1.90;;;;;;;;;;5096972;27;20046;-75
2022/06/11 06:35:20;;;;;;;9.70;2.00;;;;;;;;;;5093485;28;20656;-75
2022/06/11 06:37:46;;;;;;;9.90;2.92;;;;;;;;;;5094764;28;20036;-74
2022/06/11 06:40:11;;;;;;;9.35;2.30;;;;;;;;;;5098792;27;20418;-74
2022/06/11 06:42:37;;;;;;;10.32;2.50;;;;;;;;;;5105583;28;20036;-76
2022/06/11 06:45:03;;;;;;;8.75;1.80;;;;;;;;;;5099832;28;20031;-75
2022/06/11 06:47:28;;;;;;;10.75;2.00;;;;;;;;;;5095009;27;20027;-74
2022/06/11 06:49:54;;;;;;;8.25;2.50;;;;;;;;;;5095674;28;20028;-73
2022/06/11 06:52:20;;;;;;;11.38;2.33;;;;;;;;;;5092473;28;20031;-75
2022/06/11 06:54:45;;;;;;;12.68;2.40;;;;;;;;;;5100432;27;20088;-76
2022/06/11 06:57:10;;;;;;;9.85;2.30;;;;;;;;;;5099057;27;20027;-72
2022/06/11 06:59:36;;;;;;;9.18;2.35;;;;;;;;;;5099085;28;20055;-76
2022/06/11 07:02:03;;;;;;;10.85;2.15;;;;;;;;;;5103121;28;20082;-73
2022/06/11 07:04:28;;;;;;;10.20;2.38;;;;;;;;;;5102875;28;20058;-76
2022/06/11 07:06:54;;;;;;;8.93;2.35;;;;;;;;;;5106316;28;20066;-75
2022/06/11 07:09:19;;;;;;;11.60;2.20;;;;;;;;;;5108530;28;20083;-74
2022/06/11 07:11:44;;;;;;;6.90;2.30;;;;;;;;;;5105015;28;20032;-76
2022/06/11 07:14:10;;;;;;;9.75;2.30;;;;;;;;;;5104911;27;20038;-75
2022/06/11 07:16:44;;;;;;;8.50;2.05;;;;;;;;;;5102038;27;20026;-73
2022/06/11 07:19:15;;;;;;;8.48;1.90;;;;;;;;;;5103954;28;20058;-74
2022/06/11 07:21:47;;;;;;;8.60;2.33;;;;;;;;;;5108581;27;20020;-75
2022/06/11 07:24:20;;;;;;;7.85;2.00;;;;;;;;;;5107439;28;20092;-74
2022/06/11 07:26:51;;;;;;;10.10;2.40;;;;;;;;;;5098394;28;20027;-74
2022/06/11 07:29:24;;;;;;;8.90;1.83;;;;;;;;;;5110626;28;20020;-74
2022/06/11 07:31:52;;;;;;;9.27;2.40;;;;;;;;;;5105538;28;20148;-74
2022/06/11 07:34:19;;;;;;;11.50;3.05;;;;;;;;;;5104007;27;20038;-74
2022/06/11 07:36:45;;;;;;;9.50;2.10;;;;;;;;;;5097477;28;20043;-74
2022/06/11 07:39:11;;;;;;;8.40;2.20;;;;;;;;;;5101323;28;20024;-73
2022/06/11 07:41:36;;;;;;;12.13;2.25;;;;;;;;;;5105266;28;20038;-75
2022/06/11 07:44:02;;;;;;;10.65;2.50;;;;;;;;;;5109211;28;20023;-72
2022/06/11 07:46:27;;;;;;;9.20;1.98;;;;;;;;;;5110003;27;20051;-74
2022/06/11 07:48:53;;;;;;;8.57;1.90;;;;;;;;;;5106954;28;20428;-73
2022/06/11 07:51:18;;;;;;;7.90;1.80;;;;;;;;;;5108835;27;21220;-76
2022/06/11 07:53:48;;;;;;;10.32;2.13;;;;;;;;;;5108850;28;20042;-74
2022/06/11 07:56:14;;;;;;;7.55;2.03;;;;;;;;;;5115434;28;20031;-72
2022/06/11 07:58:40;;;;;;;8.43;2.22;;;;;;;;;;5109486;28;21011;-76
2022/06/11 08:01:06;;;;;;;12.60;2.50;;;;;;;;;;5110654;28;20020;-76
2022/06/11 08:03:32;;;;;;;10.05;2.58;;;;;;;;;;5108592;28;20032;-75
2022/06/11 08:05:58;;;;;;;8.10;2.00;;;;;;;;;;5110069;28;20100;-75
2022/06/11 08:08:24;;;;;;;9.73;1.90;;;;;;;;;;5111168;28;20023;-73
2022/06/11 08:10:50;;;;;;;7.10;2.00;;;;;;;;;;5108916;27;20106;-74
2022/06/11 08:13:16;;;;;;;12.75;2.33;;;;;;;;;;5110603;27;20114;-75
2022/06/11 08:15:44;;;;;;;13.40;2.05;;;;;;;;;;5107671;28;20027;-72
2022/06/11 08:18:10;;;;;;;7.70;2.05;;;;;;;;;;5112039;28;20023;-74
2022/06/11 08:20:37;;;;;;;11.73;2.97;;;;;;;;;;5110971;28;20015;-73
2022/06/11 08:23:03;;;;;;;12.07;2.30;;;;;;;;;;5104635;28;20027;-74
2022/06/11 08:25:29;;;;;;;10.90;2.10;;;;;;;;;;5111029;28;20020;-72
2022/06/11 08:27:56;;;;;;;8.15;1.98;;;;;;;;;;5104474;28;20016;-74
2022/06/11 08:30:23;;;;;;;10.07;2.58;;;;;;;;;;5110739;28;20031;-76
2022/06/11 08:32:49;;;;;;;9.05;2.10;;;;;;;;;;5101513;28;20052;-74
2022/06/11 08:35:18;;;;;;;9.90;2.25;;;;;;;;;;5103288;27;20071;-73
2022/06/11 08:37:43;;;;;;;9.00;2.38;;;;;;;;;;5103481;27;20027;-73
2022/06/11 08:40:21;;;;;;;11.82;2.08;;;;;;;;;;5102015;27;20055;-74
2022/06/11 08:42:55;;;;;;;8.60;2.28;;;;;;;;;;5102727;28;21300;-73
2022/06/11 08:45:25;;;;;;;10.05;2.00;;;;;;;;;;5101509;28;20039;-73
2022/06/11 08:47:57;;;;;;;8.00;1.90;;;;;;;;;;5104555;27;20387;-74
2022/06/11 08:50:35;;;;;;;7.10;1.80;;;;;;;;;;5101805;27;20088;-74
2022/06/11 08:53:02;;;;;;;8.38;1.80;;;;;;;;;;5105103;28;20038;-73
2022/06/11 08:55:34;;;;;;;8.75;1.88;;;;;;;;;;5102264;27;20505;-74
2022/06/11 08:58:12;;;;;;;11.13;2.03;;;;;;;;;;5096007;27;20076;-74
2022/06/11 09:01:04;;;;;;;10.80;2.60;;;;;;;;;;5105458;27;20051;-74
2022/06/11 09:03:44;;;;;;;12.38;2.92;;;;;;;;;;5108007;28;20502;-74
2022/06/11 09:06:16;;;;;;;10.68;1.98;;;;;;;;;;5103194;27;20024;-74
2022/06/11 09:09:01;;;;;;;10.02;2.30;;;;;;;;;;5107871;27;20041;-74
2022/06/11 09:11:29;;;;;;;11.80;2.67;;;;;;;;;;5106628;28;20028;-74
2022/06/11 09:14:21;;;;;;;8.15;2.25;;;;;;;;;;5110701;28;20468;-74
2022/06/11 09:17:21;;;;;;;9.38;2.53;;;;;;;;;;5102379;27;20027;-73
2022/06/11 09:20:10;;;;;;;7.40;1.75;;;;;;;;;;5107907;27;20024;-74
2022/06/11 09:23:06;;;;;;;11.80;2.50;;;;;;;;;;5106205;27;20067;-74
2022/06/11 09:25:56;;;;;;;11.65;2.47;;;;;;;;;;5111955;28;20051;-73
2022/06/11 09:28:40;;;;;;;11.52;2.10;;;;;;;;;;5108335;28;20020;-73
2022/06/11 09:31:23;;;;;;;7.00;1.80;;;;;;;;;;5108835;28;20511;-74
2022/06/11 09:33:55;;;;;;;8.48;1.70;;;;;;;;;;5104738;28;20038;-74
2022/06/11 09:36:28;;;;;;;9.85;2.10;;;;;;;;;;5109305;28;20119;-74
2022/06/11 09:38:54;;;;;;;7.15;1.65;;;;;;;;;;5105972;28;20526;-74
2022/06/11 09:41:46;;;;;;;12.50;2.08;;;;;;;;;;5106958;28;20411;-74
2022/06/11 09:44:17;;;;;;;12.13;2.28;;;;;;;;;;5103828;27;20035;-73
2022/06/11 09:46:51;;;;;;;6.53;1.90;;;;;;;;;;5101373;28;20028;-73
2022/06/11 09:49:52;;;;;;;6.78;1.77;;;;;;;;;;5106206;28;20521;-74
2022/06/11 09:52:29;;;;;;;8.52;1.80;;;;;;;;;;5103502;27;20034;-72
2022/06/11 09:55:17;;;;;;;8.32;2.00;;;;;;;;;;5100880;27;20027;-73
2022/06/11 09:57:49;;;;;;;8.55;2.05;;;;;;;;;;5103358;28;20024;-73
2022/06/11 10:00:25;;;;;;;10.07;2.20;;;;;;;;;;5100788;27;20093;-73
2022/06/11 10:05:44;;;;;;;10.05;1.80;;;;;;;;;;5102166;27;20440;-73
2022/06/11 10:08:21;;;;;;;9.18;2.10;;;;;;;;;;5104581;27;20054;-72
2022/06/11 10:10:49;;;;;;;12.70;2.15;;;;;;;;;;5105269;27;20059;-74
2022/06/11 10:13:25;;;;;;;8.23;2.13;;;;;;;;;;5104819;27;20027;-72
2022/06/11 10:15:51;;;;;;;9.20;1.90;;;;;;;;;;5108153;28;20460;-73
2022/06/11 10:18:32;;;;;;;9.95;2.33;;;;;;;;;;5108946;28;20093;-72
2022/06/11 10:21:14;;;;;;;10.63;2.10;;;;;;;;;;5106832;28;21856;-73
2022/06/11 10:23:49;;;;;;;8.23;2.13;;;;;;;;;;5106328;28;20055;-74
2022/06/11 10:26:25;;;;;;;8.63;1.90;;;;;;;;;;5106526;27;20656;-73
2022/06/11 10:28:59;;;;;;;12.98;2.05;;;;;;;;;;5114290;27;20543;-72
2022/06/11 10:31:32;;;;;;;8.23;1.88;;;;;;;;;;5106227;27;20522;-74
2022/06/11 10:34:31;;;;;;;7.53;2.00;;;;;;;;;;5107483;28;20038;-73
2022/06/11 10:37:10;;;;;;;8.30;2.03;;;;;;;;;;5080774;28;20422;-73
2022/06/11 10:39:56;;;;;;;10.25;2.38;;;;;;;;;;5105554;28;20539;-73
2022/06/11 10:42:32;;;;;;;8.85;1.70;;;;;;;;;;5108426;27;20371;-72
2022/06/11 10:44:57;;;;;;;7.70;2.20;;;;;;;;;;5106891;28;20051;-72
2022/06/11 10:47:34;;;;;;;8.25;2.05;;;;;;;;;;5105797;27;20043;-72
2022/06/11 10:50:11;;;;;;;8.55;1.80;;;;;;;;;;5102281;28;20045;-72
2022/06/11 10:52:39;;;;;;;7.10;1.92;;;;;;;;;;5106494;28;20023;-72
2022/06/11 10:55:08;;;;;;;7.68;2.00;;;;;;;;;;5106336;28;20118;-73
2022/06/11 10:57:34;;;;;;;11.25;1.70;;;;;;;;;;5107842;28;20080;-73
2022/06/11 11:00:16;;;;;;;9.43;2.25;;;;;;;;;;5102825;27;20559;-72
2022/06/11 11:03:00;;;;;;;7.30;1.77;;;;;;;;;;5105695;28;20026;-72
2022/06/11 11:05:42;;;;;;;;;;;;;;;;;;5096815;28;20040;-72
2022/06/11 11:08:11;;;;;;;9.30;2.25;;;;;;;;;;5095974;28;19916;-72
2022/06/11 11:10:36;;;;;;;10.55;2.17;;;;;;;;;;5101705;28;20086;-73
2022/06/11 11:13:06;;;;;;;10.23;2.10;;;;;;;;;;5098960;28;20480;-73
2022/06/11 11:15:41;;;;;;;7.65;2.00;;;;;;;;;;5099670;28;20100;-72
2022/06/11 11:18:16;;;;;;;7.78;2.17;;;;;;;;;;5102726;27;20035;-73
2022/06/11 11:20:43;;;;;;;7.18;2.00;;;;;;;;;;5106097;27;20023;-72
2022/06/11 11:23:28;;;;;;;7.60;1.88;;;;;;;;;;5099543;27;20019;-73
2022/06/11 11:26:12;;;;;;;8.40;2.30;;;;;;;;;;5103417;28;20028;-73
2022/06/11 11:28:55;;;;;;;7.13;2.10;;;;;;;;;;5097386;28;20039;-72
2022/06/11 11:31:48;;;;;;;8.10;2.05;;;;;;;;;;5100923;28;20050;-73
2022/06/11 11:34:33;;;;;;;;;;;;;;;;;;5098936;28;20099;-73
2022/06/11 11:37:13;;;;;;;7.97;2.10;;;;;;;;;;5111161;27;20528;-73
2022/06/11 11:39:55;;;;;;;9.98;2.10;;;;;;;;;;5098965;28;20487;-72
2022/06/11 11:42:26;;;;;;;9.68;2.40;;;;;;;;;;5102326;28;20032;-72
2022/06/11 11:44:57;;;;;;;8.82;2.53;;;;;;;;;;5102453;28;20038;-73
2022/06/11 11:47:35;;;;;;;6.50;2.10;;;;;;;;;;5103095;28;20023;-73
2022/06/11 11:50:19;;;;;;;10.63;2.70;;;;;;;;;;5097120;28;20032;-73
2022/06/11 11:52:52;;;;;;;9.77;2.60;;;;;;;;;;5097444;28;20031;-73
2022/06/11 11:55:27;;;;;;;9.75;2.33;;;;;;;;;;5093189;28;20027;-73
2022/06/11 11:58:00;;;;;;;7.88;2.25;;;;;;;;;;5096178;28;20388;-72
2022/06/11 12:00:39;;;;;;;8.98;2.42;;;;;;;;;;5099827;28;20088;-72
2022/06/11 12:03:14;;;;;;;11.40;2.80;;;;;;;;;;5094144;28;20115;-73
2022/06/11 12:05:50;;;;;;;9.60;2.75;;;;;;;;;;5096492;28;20461;-72
2022/06/11 12:08:24;;;;;;;8.73;2.60;;;;;;;;;;5096954;28;20042;-73
2022/06/11 12:10:52;;;;;;;9.55;2.50;;;;;;;;;;5095294;28;20034;-73
2022/06/11 12:13:32;;;;;;;8.68;2.55;;;;;;;;;;5095073;28;20041;-72
2022/06/11 12:16:03;;;;;;;6.88;2.47;;;;;;;;;;5106773;28;20487;-73
2022/06/11 12:18:42;;;;;;;10.18;2.30;;;;;;;;;;5102608;28;20107;-73
2022/06/11 12:21:23;;;;;;;10.00;2.53;;;;;;;;;;5100931;28;20060;-73
2022/06/11 12:23:51;;;;;;;7.32;2.13;;;;;;;;;;5093598;28;20039;-73
2022/06/11 12:26:21;;;;;;;6.53;1.83;;;;;;;;;;5100345;28;20175;-72
2022/06/11 12:29:07;;;;;;;7.70;2.05;;;;;;;;;;5096372;28;20065;-72
2022/06/11 12:31:33;;;;;;;8.82;2.30;;;;;;;;;;5102342;28;20818;-73
2022/06/11 12:34:01;;;;;;;10.38;2.92;;;;;;;;;;5101564;28;20031;-73
2022/06/11 12:36:33;;;;;;;7.93;1.80;;;;;;;;;;5097476;27;20067;-74
2022/06/11 12:39:09;;;;;;;10.55;2.38;;;;;;;;;;5106276;27;20042;-74
2022/06/11 12:41:37;;;;;;;6.65;1.70;;;;;;;;;;5107220;28;20957;-73
2022/06/11 12:44:37;;;;;;;5.40;1.58;;;;;;;;;;5107154;28;20081;-73
2022/06/11 12:47:24;;;;;;;6.75;1.80;;;;;;;;;;5107660;28;20135;-74
2022/06/11 12:50:14;;;;;;;7.05;2.28;;;;;;;;;;5106371;27;20039;-73
2022/06/11 12:53:06;;;;;;;9.93;1.92;;;;;;;;;;5095564;27;20116;-74
2022/06/11 12:55:40;;;;;;;7.38;2.15;;;;;;;;;;5103356;28;20424;-74
2022/06/11 12:58:17;;;;;;;9.82;2.47;;;;;;;;;;5105978;28;20023;-74
2022/06/11 13:00:50;;;;;;;8.35;2.42;;;;;;;;;;5109088;28;20023;-74
2022/06/11 13:03:30;;;;;;;10.30;2.00;;;;;;;;;;5104044;28;21407;-74
2022/06/11 13:06:16;;;;;;;9.05;1.77;;;;;;;;;;5107350;28;20023;-72
2022/06/11 13:09:07;;;;;;;7.47;1.83;;;;;;;;;;5104142;28;20357;-74
2022/06/11 13:11:49;;;;;;;6.82;2.47;;;;;;;;;;5103916;28;20019;-72
2022/06/11 13:14:52;;;;;;;9.52;2.85;;;;;;;;;;5109987;28;20039;-73
2022/06/11 13:17:54;;;;;;;6.63;1.90;;;;;;;;;;5109191;28;20521;-74
2022/06/11 13:20:54;;;;;;;9.63;1.95;;;;;;;;;;5111460;28;20106;-74
2022/06/11 13:23:40;;;;;;;9.52;2.63;;;;;;;;;;5109243;28;20031;-74
2022/06/11 13:26:26;;;;;;;8.40;2.30;;;;;;;;;;5107286;28;20110;-72
2022/06/11 13:29:24;;;;;;;8.30;2.03;;;;;;;;;;5112203;28;20839;-74
2022/06/11 13:32:02;;;;;;;10.27;3.13;;;;;;;;;;5107680;28;20509;-74
2022/06/11 13:34:50;;;;;;;6.57;2.25;;;;;;;;;;5112357;28;20114;-74
2022/06/11 13:37:33;;;;;;;9.07;2.20;;;;;;;;;;5109239;28;20395;-72
2022/06/11 13:40:02;;;;;;;5.68;2.08;;;;;;;;;;5102586;28;20402;-74
2022/06/11 13:43:03;;;;;;;6.18;2.40;;;;;;;;;;5103343;27;20030;-74
2022/06/11 13:45:51;;;;;;;9.55;2.65;;;;;;;;;;5100744;28;20061;-73
2022/06/11 13:48:35;;;;;;;7.85;2.63;;;;;;;;;;5105813;28;20031;-74
2022/06/11 13:51:14;;;;;;;9.30;2.65;;;;;;;;;;5108920;28;20035;-74
2022/06/11 13:57:06;;;;;;;8.93;2.70;;;;;;;;;;5102921;27;20034;-74
2022/06/11 14:00:09;;;;;;;6.60;2.67;;;;;;;;;;5111808;28;20024;-74
2022/06/11 14:02:56;;;;;;;10.70;2.95;;;;;;;;;;5107823;28;20531;-74
2022/06/11 14:05:26;;;;;;;8.10;2.60;;;;;;;;;;5106934;28;20012;-74
2022/06/11 14:07:53;;;;;;;6.72;2.60;;;;;;;;;;5107132;28;20020;-74
2022/06/11 14:10:22;;;;;;;6.78;2.50;;;;;;;;;;5106657;28;20065;-74
2022/06/11 14:12:52;;;;;;;9.07;2.50;;;;;;;;;;5105493;27;20111;-72
2022/06/11 14:15:25;;;;;;;9.35;2.90;;;;;;;;;;5101584;28;20028;-74
2022/06/11 14:18:20;;;;;;;7.30;3.00;;;;;;;;;;5104455;27;20032;-74
2022/06/11 14:20:58;;;;;;;9.63;3.30;;;;;;;;;;5096765;27;20070;-74
2022/06/11 14:23:26;;;;;;;8.95;3.17;;;;;;;;;;5107101;28;20024;-74
2022/06/11 14:25:56;;;;;;;10.80;2.85;;;;;;;;;;5111652;28;20108;-74
2022/06/11 14:28:25;;;;;;;7.15;2.55;;;;;;;;;;5104422;28;20020;-74
2022/06/11 14:30:53;;;;;;;8.27;2.90;;;;;;;;;;5099841;28;20031;-74
2022/06/11 14:33:26;;;;;;;11.15;3.42;;;;;;;;;;5096368;28;20114;-74
2022/06/11 14:35:55;;;;;;;8.25;3.10;;;;;;;;;;5105450;28;20047;-72
2022/06/11 14:38:21;;;;;;;8.07;3.10;;;;;;;;;;5101676;28;20024;-73
2022/06/11 14:40:48;;;;;;;10.57;3.83;;;;;;;;;;5102795;28;20036;-73
2022/06/11 14:43:19;;;;;;;7.00;2.53;;;;;;;;;;5101824;28;20031;-74
2022/06/11 14:45:50;;;;;;;11.77;3.20;;;;;;;;;;5112764;28;20027;-74
2022/06/11 14:48:23;;;;;;;7.82;2.65;;;;;;;;;;5105106;28;20062;-74
2022/06/11 14:51:06;;;;;;;9.93;3.53;;;;;;;;;;5107152;28;20607;-74
2022/06/11 14:53:37;;;;;;;8.13;2.83;;;;;;;;;;5106723;28;20029;-74
2022/06/11 14:56:40;;;;;;;8.45;2.80;;;;;;;;;;5107724;28;20024;-74
2022/06/11 14:59:27;;;;;;;10.93;3.20;;;;;;;;;;5103848;27;20097;-74
2022/06/11 15:01:58;;;;;;;10.93;3.38;;;;;;;;;;5105013;28;20023;-74
2022/06/11 15:04:39;;;;;;;9.55;2.88;;;;;;;;;;5107648;28;20088;-74
2022/06/11 15:07:18;;;;;;;8.98;2.90;;;;;;;;;;5100134;28;20036;-74
2022/06/11 15:09:56;;;;;;;10.57;3.22;;;;;;;;;;5104767;28;20023;-74
2022/06/11 15:12:36;;;;;;;8.52;2.80;;;;;;;;;;5099963;28;20391;-74
2022/06/11 15:15:22;;;;;;;6.70;2.85;;;;;;;;;;5106282;28;20055;-73
2022/06/11 15:17:55;;;;;;;8.90;3.63;;;;;;;;;;5107045;27;20031;-72
2022/06/11 15:20:31;;;;;;;9.30;3.10;;;;;;;;;;5106142;28;20055;-74